Time;durP1;ratioP1;P1;durP2;ratioP2;P2;SDS_P1;SDS_P2;PMS_P1;PMS_P2;Temp;Humidity;BMP_temperature;BMP_pressure;BME280_temperature;BME280_humidity;BME280_pressure;Samples;Min_cycle;Max_cycle;Signal;HPM_P1;HPM_P2
2023/05/22 00:00:54;;;;;;;21.55;14.52;;;;;;;18.80;100.00;101451.16;5020368;28;20080;-77
2023/05/22 00:03:23;;;;;;;21.83;13.73;;;;;;;18.89;100.00;101445.00;5000718;28;20033;-78
2023/05/22 00:05:49;;;;;;;20.35;14.63;;;;;;;18.90;100.00;101440.94;5020749;28;20076;-77
2023/05/22 00:08:14;;;;;;;21.63;15.52;;;;;;;18.85;100.00;101442.19;5022940;28;21248;-77
2023/05/22 00:10:40;;;;;;;21.70;14.48;;;;;;;18.89;100.00;101442.16;5008332;28;20045;-77
2023/05/22 00:13:05;;;;;;;21.20;13.00;;;;;;;18.80;100.00;101434.13;4999804;28;20045;-77
2023/05/22 00:15:32;;;;;;;26.65;16.52;;;;;;;18.80;100.00;101439.00;4998800;28;20063;-77
2023/05/22 00:17:57;;;;;;;22.33;14.48;;;;;;;18.55;100.00;101433.56;5017682;28;20033;-77
2023/05/22 00:20:23;;;;;;;21.83;14.40;;;;;;;18.71;100.00;101422.47;5022288;28;20078;-78
2023/05/22 00:22:48;;;;;;;18.02;12.65;;;;;;;18.78;100.00;101428.06;5003971;28;20487;-78
2023/05/22 00:25:18;;;;;;;21.13;14.48;;;;;;;18.64;100.00;101425.38;5021815;28;20021;-78
2023/05/22 00:27:43;;;;;;;24.25;16.17;;;;;;;18.35;100.00;101408.66;5027637;28;20535;-78
2023/05/22 00:30:09;;;;;;;22.50;14.98;;;;;;;18.42;100.00;101393.59;5003835;28;20104;-78
2023/05/22 00:32:34;;;;;;;20.90;13.30;;;;;;;18.39;100.00;101383.91;5021606;28;20022;-78
2023/05/22 00:35:00;;;;;;;16.77;11.50;;;;;;;18.53;100.00;101374.47;5006753;28;20037;-78
2023/05/22 00:37:25;;;;;;;19.00;12.45;;;;;;;18.66;100.00;101378.38;5021264;28;20033;-78
2023/05/22 00:39:50;;;;;;;17.42;11.73;;;;;;;18.67;100.00;101357.28;5004300;28;20030;-78
2023/05/22 00:42:17;;;;;;;16.73;11.52;;;;;;;18.70;100.00;101352.81;5018712;28;20021;-78
2023/05/22 00:44:42;;;;;;;17.88;10.77;;;;;;;18.64;100.00;101343.16;5017437;28;20033;-78
2023/05/22 00:47:08;;;;;;;18.45;11.77;;;;;;;18.72;100.00;101341.84;5003035;28;20365;-78
2023/05/22 00:49:33;;;;;;;14.20;10.90;;;;;;;18.51;100.00;101333.56;5001912;28;20489;-78
2023/05/22 00:51:59;;;;;;;19.23;11.50;;;;;;;18.48;100.00;101332.38;5001034;28;20029;-78
2023/05/22 00:54:25;;;;;;;16.65;10.93;;;;;;;18.58;100.00;101331.47;5018954;28;20454;-78
2023/05/22 00:56:50;;;;;;;16.33;10.65;;;;;;;18.65;100.00;101331.38;5018328;28;20025;-78
2023/05/22 00:59:16;;;;;;;16.40;11.68;;;;;;;18.52;100.00;101332.34;5020049;28;20116;-78
2023/05/22 01:01:42;;;;;;;18.10;11.70;;;;;;;18.43;100.00;101336.50;5019060;28;20071;-78
2023/05/22 01:04:10;;;;;;;16.10;11.50;;;;;;;18.55;100.00;101332.34;5001426;28;20438;-78
2023/05/22 01:06:36;;;;;;;15.23;11.60;;;;;;;18.49;100.00;101346.16;5001237;28;20041;-78
2023/05/22 01:09:02;;;;;;;17.33;11.30;;;;;;;18.54;100.00;101344.09;5018896;28;20100;-77
2023/05/22 01:11:36;;;;;;;16.40;11.30;;;;;;;18.37;100.00;101355.19;5015473;28;20526;-78
2023/05/22 01:14:09;;;;;;;16.90;10.50;;;;;;;18.48;100.00;101350.19;5021306;28;20107;-78
2023/05/22 01:17:07;;;;;;;17.77;11.77;;;;;;;18.36;100.00;101341.44;5020897;28;20511;-78
2023/05/22 01:20:06;;;;;;;16.67;10.95;;;;;;;18.44;100.00;101340.13;5009005;28;20033;-78
2023/05/22 01:23:11;;;;;;;18.25;12.13;;;;;;;18.44;100.00;101338.09;5022211;28;20120;-78
2023/05/22 01:26:09;;;;;;;15.18;9.90;;;;;;;18.36;100.00;101341.44;5024222;28;20399;-78
2023/05/22 01:28:46;;;;;;;15.48;11.40;;;;;;;18.24;100.00;101339.94;5022186;28;20480;-78
2023/05/22 01:31:16;;;;;;;17.55;12.05;;;;;;;18.31;100.00;101334.19;5023280;28;20084;-78
2023/05/22 01:33:46;;;;;;;16.70;12.27;;;;;;;18.37;100.00;101338.19;5021832;28;20044;-78
2023/05/22 01:36:14;;;;;;;18.38;11.07;;;;;;;18.40;100.00;101330.84;5022848;28;20495;-78
2023/05/22 01:38:41;;;;;;;13.80;9.93;;;;;;;18.41;100.00;101333.28;5020790;28;20498;-78
2023/05/22 01:41:06;;;;;;;14.63;10.57;;;;;;;18.35;100.00;101325.66;5005477;28;20037;-78
2023/05/22 01:43:32;;;;;;;17.65;11.63;;;;;;;18.31;100.00;101331.34;5022290;28;20029;-78
2023/05/22 01:45:58;;;;;;;16.67;10.60;;;;;;;18.33;100.00;101326.06;5021362;28;20029;-78
2023/05/22 01:48:23;;;;;;;15.05;10.23;;;;;;;18.16;100.00;101310.06;5022944;28;20107;-77
2023/05/22 01:50:52;;;;;;;15.63;10.45;;;;;;;18.17;100.00;101311.66;5017551;28;20036;-78
2023/05/22 01:53:27;;;;;;;12.95;9.20;;;;;;;18.21;100.00;101306.78;5018100;28;20025;-78
2023/05/22 01:56:04;;;;;;;12.48;9.73;;;;;;;18.13;100.00;101299.56;5022697;28;20081;-78
2023/05/22 01:58:47;;;;;;;15.02;10.23;;;;;;;18.05;100.00;101293.97;5018618;28;20030;-78
2023/05/22 02:01:13;;;;;;;14.93;10.40;;;;;;;18.10;100.00;101291.91;5018365;28;20029;-78
2023/05/22 02:03:40;;;;;;;18.38;9.85;;;;;;;18.17;100.00;101277.66;5006187;28;20033;-78
2023/05/22 02:06:08;;;;;;;13.77;10.50;;;;;;;18.22;100.00;101274.38;5024268;28;20501;-78
2023/05/22 02:08:40;;;;;;;15.02;9.85;;;;;;;18.28;100.00;101279.16;5017855;28;20037;-78
2023/05/22 02:11:06;;;;;;;13.38;9.55;;;;;;;18.19;100.00;101272.38;5023110;28;20475;-78
2023/05/22 02:13:32;;;;;;;15.15;10.15;;;;;;;18.23;100.00;101273.16;5018938;28;20084;-78
2023/05/22 02:15:57;;;;;;;12.88;9.18;;;;;;;18.17;100.00;101274.84;5001186;28;20036;-78
2023/05/22 02:18:30;;;;;;;12.60;9.75;;;;;;;18.12;100.00;101280.97;5022152;28;20029;-79
2023/05/22 02:20:59;;;;;;;;;;;;;;;18.16;100.00;101284.56;5022853;28;20029;-77
2023/05/22 02:23:30;;;;;;;16.05;9.85;;;;;;;18.17;100.00;101294.66;5023272;28;19932;-78
2023/05/22 02:25:56;;;;;;;14.43;10.37;;;;;;;18.12;100.00;101287.44;5023363;28;20056;-78
2023/05/22 02:28:21;;;;;;;14.50;9.77;;;;;;;18.08;100.00;101290.28;5022364;28;20025;-78
2023/05/22 02:30:47;;;;;;;14.30;9.57;;;;;;;18.18;100.00;101284.97;5026993;28;20029;-78
2023/05/22 02:33:13;;;;;;;17.27;10.45;;;;;;;18.09;100.00;101285.44;5027123;28;20037;-78
2023/05/22 02:35:39;;;;;;;15.43;10.48;;;;;;;18.00;100.00;101285.91;5026178;28;20030;-79
2023/05/22 02:38:05;;;;;;;16.65;9.10;;;;;;;18.03;100.00;101279.44;5018441;28;20048;-79
2023/05/22 02:40:30;;;;;;;15.43;10.32;;;;;;;18.03;100.00;101289.97;5019924;28;20484;-78
2023/05/22 02:42:56;;;;;;;15.43;10.50;;;;;;;17.88;100.00;101290.09;5024464;28;20040;-78
2023/05/22 02:45:21;;;;;;;13.68;9.63;;;;;;;17.78;100.00;101290.16;5021017;28;21416;-79
2023/05/22 02:47:46;;;;;;;12.95;8.35;;;;;;;17.91;100.00;101294.09;5021951;28;20079;-78
2023/05/22 02:50:14;;;;;;;14.55;9.02;;;;;;;17.87;100.00;101293.34;5003897;28;20056;-78
2023/05/22 02:52:40;;;;;;;14.45;10.55;;;;;;;17.60;100.00;101296.78;5006188;28;20483;-78
2023/05/22 02:55:07;;;;;;;17.67;11.20;;;;;;;17.57;100.00;101288.31;5020470;28;20057;-78
2023/05/22 02:57:32;;;;;;;15.57;10.60;;;;;;;17.76;100.00;101299.06;5020963;28;20029;-79
2023/05/22 02:59:58;;;;;;;13.32;9.15;;;;;;;17.82;100.00;101296.59;5027150;28;20038;-79
2023/05/22 03:02:31;;;;;;;18.17;11.02;;;;;;;17.71;100.00;101278.88;4998728;28;20037;-79
2023/05/22 03:04:58;;;;;;;13.38;10.05;;;;;;;17.84;100.00;101285.69;5002044;28;20497;-78
2023/05/22 03:07:25;;;;;;;15.15;10.05;;;;;;;17.80;100.00;101288.50;5027592;28;20018;-78
2023/05/22 03:09:51;;;;;;;15.68;10.13;;;;;;;17.73;100.00;101290.59;4998321;28;20116;-78
2023/05/22 03:12:17;;;;;;;14.98;10.27;;;;;;;17.82;100.00;101291.75;5017583;28;20585;-78
2023/05/22 03:14:42;;;;;;;15.57;10.75;;;;;;;17.82;100.00;101285.28;5000866;28;20061;-78
2023/05/22 03:17:07;;;;;;;17.13;10.57;;;;;;;17.70;100.00;101277.28;5013510;28;20037;-77
2023/05/22 03:19:33;;;;;;;16.15;11.18;;;;;;;17.66;100.00;101283.78;5020056;28;20033;-78
2023/05/22 03:21:58;;;;;;;15.65;11.02;;;;;;;17.76;100.00;101284.13;5021205;28;20087;-77
2023/05/22 03:24:23;;;;;;;17.02;10.73;;;;;;;17.78;100.00;101285.28;5015656;28;20037;-77
2023/05/22 03:26:49;;;;;;;15.80;10.02;;;;;;;17.72;100.00;101291.84;5023410;28;20113;-77
2023/05/22 03:29:14;;;;;;;15.63;10.23;;;;;;;17.72;100.00;101292.63;5020944;28;20068;-77
2023/05/22 03:31:39;;;;;;;16.67;11.82;;;;;;;17.77;100.00;101299.88;5020214;28;20064;-77
2023/05/22 03:34:06;;;;;;;17.50;10.52;;;;;;;17.79;100.00;101303.91;5019273;28;20368;-77
2023/05/22 03:36:34;;;;;;;15.02;10.20;;;;;;;17.81;100.00;101304.28;5024351;28;20592;-77
2023/05/22 03:39:03;;;;;;;16.08;11.38;;;;;;;17.81;100.00;101304.28;5009901;28;20087;-77
2023/05/22 03:41:29;;;;;;;20.20;12.05;;;;;;;17.78;100.00;101307.16;5023259;28;20410;-77
2023/05/22 03:43:54;;;;;;;15.25;10.00;;;;;;;17.79;100.00;101303.09;5004789;28;20037;-77
2023/05/22 03:46:20;;;;;;;16.42;9.63;;;;;;;17.84;100.00;101305.50;5013770;28;20550;-77
2023/05/22 03:48:45;;;;;;;17.73;10.55;;;;;;;17.83;100.00;101309.56;5014829;28;21228;-77
2023/05/22 03:51:10;;;;;;;14.18;9.55;;;;;;;17.74;100.00;101312.03;4998793;28;20479;-77
2023/05/22 03:53:36;;;;;;;13.40;9.77;;;;;;;17.81;100.00;101318.44;5022856;28;20448;-77
2023/05/22 03:56:01;;;;;;;15.30;10.43;;;;;;;17.77;100.00;101314.84;5022964;28;20494;-78
2023/05/22 03:58:26;;;;;;;16.50;11.13;;;;;;;17.62;100.00;101311.31;5002596;28;20049;-77
2023/05/22 04:00:59;;;;;;;17.77;11.32;;;;;;;17.61;100.00;101306.06;5020361;28;20837;-77
2023/05/22 04:03:25;;;;;;;17.25;11.55;;;;;;;17.56;100.00;101321.47;5017653;28;20034;-79
2023/05/22 04:05:50;;;;;;;16.95;10.93;;;;;;;17.46;100.00;101328.03;5016340;28;20446;-79
2023/05/22 04:08:16;;;;;;;16.20;10.63;;;;;;;17.54;100.00;101315.44;4997109;28;20021;-79
2023/05/22 04:10:45;;;;;;;15.68;10.55;;;;;;;17.48;100.00;101312.22;5015216;28;20120;-78
2023/05/22 04:13:11;;;;;;;16.45;10.18;;;;;;;17.57;100.00;101314.59;5021352;28;20457;-79
2023/05/22 04:15:37;;;;;;;18.40;12.35;;;;;;;17.52;100.00;101306.56;5012021;28;20041;-79
2023/05/22 04:18:02;;;;;;;14.82;10.13;;;;;;;17.50;100.00;101309.00;5019685;28;20034;-79
2023/05/22 04:20:28;;;;;;;18.13;11.90;;;;;;;17.57;100.00;101308.94;5022482;28;20037;-79
2023/05/22 04:22:53;;;;;;;16.02;10.48;;;;;;;17.58;100.00;101313.38;5018344;28;20027;-79
2023/05/22 04:25:20;;;;;;;15.18;10.60;;;;;;;17.63;100.00;101312.94;5007259;28;20025;-79
2023/05/22 04:27:46;;;;;;;15.98;11.70;;;;;;;17.71;100.00;101312.84;5023775;28;20028;-79
2023/05/22 04:30:13;;;;;;;16.80;11.80;;;;;;;17.64;100.00;101308.84;5020992;28;20048;-79
2023/05/22 04:32:39;;;;;;;15.18;10.93;;;;;;;17.66;100.00;101305.63;5025599;28;20521;-79
2023/05/22 04:35:05;;;;;;;18.08;10.75;;;;;;;17.72;100.00;101308.81;5023110;28;20741;-79
2023/05/22 04:37:30;;;;;;;21.17;14.25;;;;;;;17.62;100.00;101307.66;4995541;28;20029;-79
2023/05/22 04:40:01;;;;;;;16.67;11.55;;;;;;;17.67;100.00;101308.03;5001385;28;20033;-79
2023/05/22 04:42:27;;;;;;;16.92;11.68;;;;;;;17.68;100.00;101297.50;5012030;28;20495;-79
2023/05/22 04:44:53;;;;;;;16.15;11.88;;;;;;;17.53;100.00;101319.47;5011623;28;20048;-79
2023/05/22 04:47:18;;;;;;;19.00;13.38;;;;;;;17.64;100.00;101314.53;5013138;28;20465;-78
2023/05/22 04:49:44;;;;;;;21.88;15.15;;;;;;;17.52;100.00;101303.72;5015520;28;20436;-79
2023/05/22 04:52:10;;;;;;;20.17;13.13;;;;;;;17.55;100.00;101311.38;4996220;28;20025;-79
2023/05/22 04:54:37;;;;;;;22.40;14.90;;;;;;;17.56;100.00;101313.00;5011117;28;20649;-79
2023/05/22 04:57:03;;;;;;;19.38;14.05;;;;;;;17.59;100.00;101308.53;5016541;28;22265;-79
2023/05/22 04:59:30;;;;;;;23.08;15.65;;;;;;;17.53;100.00;101319.47;4995408;28;20030;-79
2023/05/22 05:01:55;;;;;;;23.60;15.48;;;;;;;17.62;100.00;101321.81;5017432;28;20033;-79
2023/05/22 05:04:21;;;;;;;29.95;18.73;;;;;;;17.48;100.00;101317.88;5021562;28;20017;-79
2023/05/22 05:06:46;;;;;;;26.90;17.27;;;;;;;17.64;100.00;101314.53;5016502;28;20033;-79
2023/05/22 05:09:11;;;;;;;21.92;15.30;;;;;;;17.62;100.00;101311.31;5013630;28;20055;-78
2023/05/22 05:11:37;;;;;;;22.67;16.73;;;;;;;17.59;100.00;101314.97;5000847;28;20144;-78
2023/05/22 05:14:02;;;;;;;21.52;13.57;;;;;;;17.64;100.00;101323.00;5002133;28;20079;-79
2023/05/22 05:16:28;;;;;;;22.85;14.73;;;;;;;17.56;100.00;101321.47;5013669;28;20169;-78
2023/05/22 05:18:54;;;;;;;20.90;15.27;;;;;;;17.65;100.00;101323.84;5014708;28;20152;-79
2023/05/22 05:21:20;;;;;;;28.65;20.15;;;;;;;17.73;100.00;101318.91;5017826;28;20479;-79
2023/05/22 05:23:46;;;;;;;27.45;18.73;;;;;;;17.64;100.00;101314.53;5005410;28;20032;-78
2023/05/22 05:26:11;;;;;;;31.25;20.38;;;;;;;17.67;100.00;101321.41;5020002;28;20038;-79
2023/05/22 05:28:36;;;;;;;27.88;20.08;;;;;;;17.59;100.00;101334.78;5016110;28;20534;-79
2023/05/22 05:31:02;;;;;;;27.42;18.48;;;;;;;17.57;100.00;101320.25;4996548;28;20179;-79
2023/05/22 05:33:27;;;;;;;28.73;18.35;;;;;;;17.47;100.00;101330.41;5019631;28;20130;-78
2023/05/22 05:35:53;;;;;;;28.15;20.02;;;;;;;17.51;100.00;101321.91;5015838;28;20041;-78
2023/05/22 05:38:18;;;;;;;29.58;21.27;;;;;;;17.46;100.00;101334.47;4995621;28;20037;-79
2023/05/22 05:40:44;;;;;;;31.83;21.08;;;;;;;17.40;100.00;101332.50;5017720;28;20116;-79
2023/05/22 05:43:09;;;;;;;37.33;23.70;;;;;;;17.38;100.00;101334.94;5013926;28;20040;-79
2023/05/22 05:45:35;;;;;;;34.58;23.05;;;;;;;17.39;100.00;101336.53;5013315;28;20029;-79
2023/05/22 05:48:00;;;;;;;34.95;23.20;;;;;;;17.35;100.00;101327.25;4997000;28;20021;-79
2023/05/22 05:50:26;;;;;;;36.53;21.40;;;;;;;17.30;100.00;101322.84;5018899;28;20037;-79
2023/05/22 05:52:51;;;;;;;34.40;22.17;;;;;;;17.42;100.00;101341.38;5016636;28;20028;-79
2023/05/22 05:55:16;;;;;;;33.72;23.65;;;;;;;17.40;100.00;101343.81;5008452;28;20029;-79
2023/05/22 05:57:42;;;;;;;37.92;25.10;;;;;;;17.49;100.00;101332.84;5015016;28;20091;-79
2023/05/22 06:00:10;;;;;;;40.60;25.08;;;;;;;17.38;100.00;101324.41;5003676;28;20029;-79
2023/05/22 06:02:36;;;;;;;36.40;25.27;;;;;;;17.40;100.00;101326.84;5024043;28;20033;-79
2023/05/22 06:05:04;;;;;;;36.38;23.52;;;;;;;17.49;100.00;101338.50;5005322;28;20087;-79
2023/05/22 06:07:30;;;;;;;34.20;21.05;;;;;;;17.39;100.00;101330.88;5017881;28;20388;-80
2023/05/22 06:09:56;;;;;;;26.00;18.08;;;;;;;17.70;100.00;101333.91;5003621;28;20505;-81
2023/05/22 06:12:23;;;;;;;34.17;21.70;;;;;;;17.86;100.00;101331.38;5021306;28;20048;-84
2023/05/22 06:14:48;;;;;;;33.85;22.73;;;;;;;17.78;100.00;101326.97;5009423;28;20499;-84
2023/05/22 06:17:14;;;;;;;49.75;28.08;;;;;;;17.83;100.00;101327.34;5006936;28;20102;-85
2023/05/22 06:19:39;;;;;;;42.42;27.17;;;;;;;17.76;100.00;101324.56;5020793;28;20041;-84
2023/05/22 06:22:05;;;;;;;38.50;24.77;;;;;;;17.76;100.00;101332.25;5021497;28;20083;-85
2023/05/22 06:24:31;;;;;;;37.72;26.63;;;;;;;17.88;100.00;101328.94;5028516;28;20029;-85
2023/05/22 06:26:56;;;;;;;34.75;22.42;;;;;;;17.87;100.00;101327.31;5017814;28;20032;-85
2023/05/22 06:29:22;;;;;;;42.13;27.92;;;;;;;17.95;100.00;101337.38;5006385;28;20021;-85
2023/05/22 06:31:47;;;;;;;39.33;27.08;;;;;;;18.08;100.00;101332.00;5026099;28;20044;-85
2023/05/22 06:34:13;;;;;;;48.47;26.77;;;;;;;18.11;100.00;101330.34;5018197;28;20112;-84
2023/05/22 06:36:38;;;;;;;34.60;23.73;;;;;;;18.03;100.00;101332.44;5020822;28;20320;-85
2023/05/22 06:39:03;;;;;;;36.20;25.45;;;;;;;18.12;100.00;101338.44;5003945;28;20033;-82
2023/05/22 06:41:29;;;;;;;40.38;24.77;;;;;;;18.14;100.00;101335.19;5014398;28;20155;-82
2023/05/22 06:43:54;;;;;;;37.63;25.20;;;;;;;18.24;100.00;101348.44;5002832;28;20125;-82
2023/05/22 06:46:19;;;;;;;37.38;23.40;;;;;;;18.15;100.00;101342.44;5020103;28;20071;-82
2023/05/22 06:48:45;;;;;;;31.08;21.38;;;;;;;18.22;100.00;101353.72;5025130;28;20112;-82
2023/05/22 06:51:11;;;;;;;32.88;21.15;;;;;;;18.18;100.00;101347.28;5028802;28;20138;-82
2023/05/22 06:53:37;;;;;;;35.95;23.35;;;;;;;18.20;100.00;101367.50;5026133;28;20051;-82
2023/05/22 06:56:03;;;;;;;31.20;21.23;;;;;;;18.13;100.00;101361.88;5027982;28;20483;-82
2023/05/22 06:58:28;;;;;;;39.17;23.20;;;;;;;18.21;100.00;101357.75;5012606;28;20087;-82
2023/05/22 07:00:54;;;;;;;33.47;22.17;;;;;;;18.21;100.00;101363.44;5026101;28;20455;-83
2023/05/22 07:03:20;;;;;;;36.47;23.55;;;;;;;18.14;100.00;101367.16;5011951;28;20033;-82
2023/05/22 07:05:45;;;;;;;37.67;25.38;;;;;;;18.23;100.00;101372.31;5009768;28;20043;-82
2023/05/22 07:08:11;;;;;;;34.08;23.23;;;;;;;18.14;100.00;101374.84;5005896;28;20106;-82
2023/05/22 07:10:36;;;;;;;33.83;24.13;;;;;;;18.24;100.00;101373.94;5021465;28;20483;-82
2023/05/22 07:13:01;;;;;;;34.28;22.90;;;;;;;18.34;100.00;101378.72;5025312;28;20510;-82
2023/05/22 07:15:27;;;;;;;37.08;24.52;;;;;;;18.46;100.00;101385.88;5017064;28;20497;-82
2023/05/22 07:17:52;;;;;;;32.70;23.38;;;;;;;18.41;100.00;101389.97;5020407;28;20033;-82
2023/05/22 07:20:18;;;;;;;33.85;22.90;;;;;;;18.41;100.00;101387.13;5022227;28;20025;-82
2023/05/22 07:22:43;;;;;;;37.40;24.92;;;;;;;18.38;100.00;101385.13;5025607;28;20101;-82
2023/05/22 07:25:09;;;;;;;27.83;20.05;;;;;;;18.61;100.00;101392.19;5025475;28;20036;-82
2023/05/22 07:27:34;;;;;;;32.47;22.33;;;;;;;18.54;100.00;101397.94;5025035;28;20108;-83
2023/05/22 07:29:59;;;;;;;32.08;22.35;;;;;;;18.45;100.00;101390.75;5021697;28;20057;-83
2023/05/22 07:32:25;;;;;;;34.08;21.13;;;;;;;18.46;100.00;101398.00;5025125;28;20056;-82
2023/05/22 07:34:50;;;;;;;35.78;23.73;;;;;;;18.47;100.00;101398.81;5024868;28;20033;-82
2023/05/22 07:37:15;;;;;;;35.33;23.05;;;;;;;18.58;100.00;101398.72;5010776;28;20030;-82
2023/05/22 07:39:41;;;;;;;28.98;20.95;;;;;;;18.56;100.00;101406.84;5028100;28;20483;-82
2023/05/22 07:42:06;;;;;;;35.40;22.05;;;;;;;18.59;100.00;101400.31;5029593;28;20032;-82
2023/05/22 07:44:33;;;;;;;35.05;21.58;;;;;;;18.55;100.00;101405.22;5012515;28;20402;-82
2023/05/22 07:46:58;;;;;;;30.42;20.05;;;;;;;18.56;100.00;101406.84;5029983;28;20033;-82
2023/05/22 07:49:24;;;;;;;36.75;22.48;;;;;;;18.46;100.00;101402.88;5002958;28;20021;-82
2023/05/22 07:51:49;;;;;;;30.70;21.63;;;;;;;18.51;100.00;101404.44;5009739;28;20037;-82
2023/05/22 07:54:18;;;;;;;33.20;20.13;;;;;;;18.40;100.00;101404.53;5000844;28;20083;-82
2023/05/22 07:56:44;;;;;;;30.42;20.60;;;;;;;18.36;100.00;101410.28;5026900;28;20025;-82
2023/05/22 07:59:10;;;;;;;31.40;19.40;;;;;;;18.48;100.00;101406.88;5014572;28;20432;-82
2023/05/22 08:01:37;;;;;;;28.85;19.70;;;;;;;18.66;100.00;101409.56;5023881;28;20164;-82
2023/05/22 08:04:06;;;;;;;28.85;18.27;;;;;;;18.64;100.00;101405.53;5001672;28;20044;-82
2023/05/22 08:06:31;;;;;;;32.55;19.70;;;;;;;18.75;100.00;101414.72;5007231;28;20034;-81
2023/05/22 08:08:56;;;;;;;26.73;18.55;;;;;;;18.75;100.00;101419.59;5017362;28;20052;-82
2023/05/22 08:11:22;;;;;;;24.98;18.90;;;;;;;18.66;100.00;101417.25;5021981;28;20511;-82
2023/05/22 08:13:47;;;;;;;27.70;17.77;;;;;;;18.66;100.00;101411.59;5006035;28;20045;-82
2023/05/22 08:16:13;;;;;;;27.02;18.00;;;;;;;18.84;100.00;101429.22;5020859;28;20036;-82
2023/05/22 08:18:38;;;;;;;26.67;16.50;;;;;;;18.99;100.00;101417.72;5005434;28;20060;-82
2023/05/22 08:21:03;;;;;;;21.70;15.80;;;;;;;19.02;100.00;101419.72;5027161;28;20802;-83
2023/05/22 08:23:29;;;;;;;23.83;15.65;;;;;;;19.20;100.00;101428.00;5022425;28;20035;-82
2023/05/22 08:25:55;;;;;;;28.75;17.20;;;;;;;19.26;100.00;101420.63;5029215;28;20459;-82
2023/05/22 08:28:21;;;;;;;22.80;16.75;;;;;;;19.19;100.00;101421.53;5018430;28;20018;-83
2023/05/22 08:30:46;;;;;;;29.23;17.70;;;;;;;19.17;100.00;101424.00;5029896;28;20063;-83
2023/05/22 08:33:12;;;;;;;19.45;14.43;;;;;;;19.20;100.00;101416.66;5028741;28;20087;-82
2023/05/22 08:35:37;;;;;;;22.65;15.15;;;;;;;19.29;100.00;101414.13;5006372;28;20036;-83
2023/05/22 08:38:02;;;;;;;18.95;14.27;;;;;;;19.13;100.00;101419.59;5021869;28;20171;-82
2023/05/22 08:40:38;;;;;;;21.88;15.25;;;;;;;19.09;100.00;101416.78;5027186;28;20152;-82
2023/05/22 08:43:05;;;;;;;24.13;14.48;;;;;;;19.28;100.00;101418.97;5024116;28;20025;-82
2023/05/22 08:45:33;;;;;;;26.00;16.30;;;;;;;19.23;100.00;101424.34;5002466;28;20033;-83
2023/05/22 08:48:06;;;;;;;23.20;14.20;;;;;;;19.07;100.00;101417.22;5008978;28;20029;-82
2023/05/22 08:50:33;;;;;;;21.58;14.23;;;;;;;19.14;100.00;101421.19;5024564;28;20029;-83
2023/05/22 08:53:03;;;;;;;22.23;15.13;;;;;;;18.99;100.00;101418.53;5021414;28;20045;-82
2023/05/22 08:55:29;;;;;;;25.83;16.05;;;;;;;18.90;100.00;101415.41;5018032;28;20033;-82
2023/05/22 08:57:55;;;;;;;21.48;14.75;;;;;;;19.07;100.00;101419.25;5007954;28;20030;-83
2023/05/22 09:00:21;;;;;;;25.40;16.55;;;;;;;19.05;100.00;101416.03;5026711;28;20044;-82
2023/05/22 09:02:48;;;;;;;22.02;15.32;;;;;;;19.03;100.00;101412.81;5030200;28;20022;-83
2023/05/22 09:05:16;;;;;;;16.50;12.60;;;;;;;19.06;100.00;101411.97;5022010;28;20091;-82
2023/05/22 09:07:41;;;;;;;23.15;15.10;;;;;;;19.12;100.00;101409.47;5012593;28;20136;-83
2023/05/22 09:10:07;;;;;;;21.10;14.18;;;;;;;19.09;100.00;101411.91;5019901;28;20535;-83
2023/05/22 09:12:33;;;;;;;22.13;15.25;;;;;;;19.20;100.00;101394.75;5025328;28;20464;-82
2023/05/22 09:15:12;;;;;;;24.33;13.80;;;;;;;19.29;100.00;101397.91;5020279;28;20069;-82
2023/05/22 09:17:38;;;;;;;21.50;15.90;;;;;;;19.25;100.00;101388.63;5007175;28;20037;-82
2023/05/22 09:20:05;;;;;;;23.05;14.30;;;;;;;19.27;100.00;101393.88;5026921;28;20034;-83
2023/05/22 09:22:37;;;;;;;21.00;15.13;;;;;;;19.36;100.00;101394.16;5007168;28;20503;-82
2023/05/22 09:25:03;;;;;;;19.52;14.13;;;;;;;19.66;100.00;101390.47;5020250;28;20029;-83
2023/05/22 09:27:28;;;;;;;20.20;14.15;;;;;;;19.85;100.00;101393.88;5023460;28;20128;-82
2023/05/22 09:29:56;;;;;;;20.25;15.00;;;;;;;19.78;100.00;101391.16;5002795;28;20034;-82
2023/05/22 09:32:24;;;;;;;20.85;15.05;;;;;;;19.79;100.00;101390.69;5016399;28;20132;-83
2023/05/22 09:34:50;;;;;;;23.83;15.70;;;;;;;19.95;100.00;101387.22;5004858;28;20547;-82
2023/05/22 09:37:16;;;;;;;22.45;15.25;;;;;;;19.77;100.00;101386.69;5012099;28;20080;-83
2023/05/22 09:39:43;;;;;;;20.80;14.40;;;;;;;19.92;100.00;101382.38;5005270;28;20037;-83
2023/05/22 09:42:13;;;;;;;21.48;14.10;;;;;;;20.28;100.00;101381.78;5019280;28;20029;-83
2023/05/22 09:44:41;;;;;;;23.02;15.18;;;;;;;20.31;100.00;101383.75;5017012;28;20111;-83
2023/05/22 09:47:07;;;;;;;22.98;14.60;;;;;;;20.14;100.00;101382.03;5017360;28;20476;-82
2023/05/22 09:49:40;;;;;;;20.85;13.43;;;;;;;20.70;100.00;101377.38;4996949;28;20024;-82
2023/05/22 09:52:07;;;;;;;24.05;14.95;;;;;;;20.55;100.00;101375.19;5018479;28;20499;-83
2023/05/22 09:54:34;;;;;;;21.13;14.23;;;;;;;20.83;100.00;101365.31;5019024;28;20049;-82
2023/05/22 09:57:00;;;;;;;28.70;14.60;;;;;;;21.17;100.00;101367.88;5002184;28;20483;-82
2023/05/22 09:59:30;;;;;;;19.17;13.00;;;;;;;20.62;100.00;101360.88;5021026;28;20060;-82
2023/05/22 10:01:56;;;;;;;22.10;15.13;;;;;;;21.23;100.00;101365.28;5021169;28;20113;-83
2023/05/22 10:04:22;;;;;;;29.67;15.02;;;;;;;21.19;100.00;101365.38;5017326;28;20037;-83
2023/05/22 10:06:53;;;;;;;17.58;12.55;;;;;;;21.14;100.00;101357.34;5003215;28;20570;-83
2023/05/22 10:09:22;;;;;;;21.70;15.63;;;;;;;21.24;100.00;101356.31;5014470;28;20527;-83
2023/05/22 10:11:50;;;;;;;18.60;14.23;;;;;;;21.68;100.00;101348.41;5020147;28;20395;-82
2023/05/22 10:14:15;;;;;;;20.27;14.18;;;;;;;21.72;100.00;101360.53;5018875;28;20066;-82
2023/05/22 10:16:43;;;;;;;26.00;15.40;;;;;;;21.97;100.00;101356.25;5023666;28;20088;-83
2023/05/22 10:19:10;;;;;;;19.85;14.25;;;;;;;21.99;100.00;101365.19;5004724;28;20057;-83
2023/05/22 10:21:37;;;;;;;20.00;14.93;;;;;;;21.63;100.00;101356.69;5018655;28;20033;-83
2023/05/22 10:24:05;;;;;;;20.42;14.30;;;;;;;22.11;100.00;101349.38;5022005;28;20029;-83
2023/05/22 10:26:30;;;;;;;26.58;16.08;;;;;;;21.95;100.00;101352.22;5004788;28;20561;-83
2023/05/22 10:29:19;;;;;;;22.50;14.43;;;;;;;21.91;100.00;101358.84;5025409;28;20026;-83
2023/05/22 10:31:50;;;;;;;23.13;15.90;;;;;;;21.96;100.00;101342.47;5012953;28;20317;-82
2023/05/22 10:34:49;;;;;;;26.67;15.70;;;;;;;22.19;100.00;101338.59;4991388;28;20029;-83
2023/05/22 10:37:28;;;;;;;22.75;15.90;;;;;;;22.03;100.00;101348.78;5001728;28;20035;-83
2023/05/22 10:40:01;;;;;;;23.17;16.00;;;;;;;22.16;100.00;101340.31;5022450;28;20033;-82
2023/05/22 10:42:30;;;;;;;22.23;16.10;;;;;;;22.53;100.00;101347.44;5015865;28;20468;-82
2023/05/22 10:44:56;;;;;;;23.92;15.18;;;;;;;22.74;98.25;101345.25;5002113;28;20029;-83
2023/05/22 10:47:21;;;;;;;22.20;16.58;;;;;;;22.63;97.04;101336.22;5023661;28;20060;-83
2023/05/22 10:49:48;;;;;;;18.88;14.13;;;;;;;22.95;99.40;101338.13;5024805;28;20056;-83
2023/05/22 10:52:14;;;;;;;23.77;16.00;;;;;;;22.72;98.23;101336.34;5027774;28;20112;-83
2023/05/22 10:54:44;;;;;;;24.83;15.93;;;;;;;22.82;99.06;101338.09;5020519;28;20036;-83
2023/05/22 10:57:11;;;;;;;24.70;16.83;;;;;;;22.68;98.21;101341.34;5007974;28;20183;-89
2023/05/22 10:59:36;;;;;;;21.42;16.50;;;;;;;23.23;96.39;101339.34;5007649;28;20034;-90
2023/05/22 11:02:04;;;;;;;18.83;13.98;;;;;;;22.81;99.10;101339.34;5027528;28;20735;-84